Pori, Finland

6:30 AM EEST on September 02, 2014 (GMT +0300)
Pori | Change Station
CLOSE
Current Station
Airport
Location: Pori,
Elevation: 56 ft
Nearby Weather Stations

Elev 56 ft 61.46 °N, 21.80 °E | Updated 10 minutes ago

Overcast
Overcast
52 °F
Feels Like 52 °F
N
6
Wind Variable Wind from SE

Today
High -- | Low -- °F
--% Chance of Precip.
Yesterday
High -- | Low -- °F
Precip. -- in
6:25 AM 8:37 PM
Waxing Crescent, 47% visible
Pressure 30.18 in
Visibility 6.2 miles
Clouds Overcast 6800 ft
Dew Point 48 °F
Humidity 88%
Rainfall 0.00 in
Snow Depth Not available.
UV 0 out of 12
Pollen Not available.
Air Quality Not available.
Flu Activity Not available.
METAR EFPO 020320Z AUTO 14005KT 9999 OVC068/// 11/09 Q1022

More Conditions Fewer Conditions

Pressure 30.18 in
Visibility 6.2 miles
Clouds Overcast 6800 ft
Dew Point 48 °F
Humidity 88%
Rainfall 0.00 in
Snow Depth Not available.
UV 0 out of 12
Pollen Not available.
Air Quality Not available.
Flu Activity Not available.
METAR EFPO 020320Z AUTO 14005KT 9999 OVC068/// 11/09 Q1022

More Conditions Fewer Conditions

10-Day Weather Forecast

Almanac

Astronomy

Sep. 02, 2014 Rise Set
Actual Time 6:25 AM EEST 8:37 PM EEST
Civil Twilight 5:38 AM EEST 9:24 PM EEST
Nautical Twilight 4:35 AM EEST 10:26 PM EEST
Astronomical Twilight 3:09 AM EEST 11:49 PM EEST
Moon 3:55 PM EEST 11:10 PM EEST
Length of Visible Light 15h 46m
Length of Day
14h 12m
Tomorrow will be 5m 44s shorter.
Waxing Crescent, 47% of the Moon is Illuminated
Sep 1
Waxing Crescent
Sep 2
First Quarter
Sep 8
Full
Sep 15
Last Quarter
Sep 24
New

Yesterday's Extremes

Country Highs Country Lows

Community

WunderPhotos

Upload Photos

1,749,546 photos uploaded!

WunderBlogs® & News

Nearby

Snow Depth

Not available.

Earthquake Activity

City Distance Mag. Time & Date
No recent earthquake activity has been reported nearby.
Minimum magnitude displayed is 2.5.

Coastal Water Temperatures

Place Temperature
No Stations Reporting

Nearby Weather Stations